Time;durP1;ratioP1;P1;durP2;ratioP2;P2;SDS_P1;SDS_P2;PMS_P1;PMS_P2;Temp;Humidity;BMP_temperature;BMP_pressure;BME280_temperature;BME280_humidity;BME280_pressure;Samples;Min_cycle;Max_cycle;Signal;HPM_P1;HPM_P2
2022/01/30 00:00:54;;;;;;;0.30;0.10;;;6.80;99.90;;;;;;5068987;28;20481;-84
2022/01/30 00:03:21;;;;;;;0.30;0.20;;;6.80;99.90;;;;;;5057714;28;20484;-83
2022/01/30 00:05:48;;;;;;;0.30;0.20;;;6.90;99.90;;;;;;5065874;28;20459;-85
2022/01/30 00:08:15;;;;;;;0.30;0.10;;;6.90;99.90;;;;;;5074375;28;20480;-84
2022/01/30 00:10:43;;;;;;;0.30;0.10;;;6.90;99.90;;;;;;5064558;28;20485;-84
2022/01/30 00:13:15;;;;;;;0.30;0.10;;;6.90;99.90;;;;;;5071006;28;20451;-84
2022/01/30 00:15:46;;;;;;;0.30;0.10;;;6.90;99.90;;;;;;5070596;28;20531;-84
2022/01/30 00:18:26;;;;;;;0.30;0.10;;;6.90;99.90;;;;;;5069234;28;21138;-84
2022/01/30 00:21:06;;;;;;;0.30;0.10;;;6.90;99.90;;;;;;5068449;28;20556;-84
2022/01/30 00:23:35;;;;;;;0.30;0.10;;;6.90;99.90;;;;;;5073083;28;20543;-84
2022/01/30 00:26:05;;;;;;;0.30;0.10;;;6.90;99.90;;;;;;5069499;28;20446;-84
2022/01/30 00:28:33;;;;;;;0.30;0.10;;;6.80;99.90;;;;;;5073682;28;20524;-83
2022/01/30 00:31:01;;;;;;;0.30;0.10;;;6.80;99.90;;;;;;5059577;28;20467;-84
2022/01/30 00:33:28;;;;;;;0.30;0.20;;;6.80;99.90;;;;;;5074028;28;20544;-86
2022/01/30 00:35:55;;;;;;;0.30;0.20;;;6.90;99.90;;;;;;5070067;28;20444;-84
2022/01/30 00:38:23;;;;;;;0.30;0.10;;;6.80;99.90;;;;;;5060797;28;21249;-84
2022/01/30 00:40:51;;;;;;;0.40;0.30;;;6.80;99.90;;;;;;5073651;28;20539;-84
2022/01/30 00:43:19;;;;;;;0.30;0.10;;;6.80;99.90;;;;;;5067979;28;20528;-84
2022/01/30 00:45:48;;;;;;;0.30;0.10;;;6.80;99.90;;;;;;5073583;28;20493;-83
2022/01/30 00:48:15;;;;;;;0.30;0.10;;;6.80;99.90;;;;;;5064081;28;20478;-84
2022/01/30 00:50:42;;;;;;;0.30;0.20;;;6.80;99.90;;;;;;5087784;28;20523;-84
2022/01/30 00:53:09;;;;;;;0.30;0.10;;;6.80;99.90;;;;;;5090912;28;20438;-82
2022/01/30 00:55:36;;;;;;;0.30;0.10;;;6.80;99.90;;;;;;5075680;28;20460;-83
2022/01/30 00:58:04;;;;;;;0.30;0.10;;;6.80;99.90;;;;;;5065609;28;20502;-81
2022/01/30 01:00:31;;;;;;;0.30;0.20;;;6.70;99.90;;;;;;5063547;28;20474;-85
2022/01/30 01:03:00;;;;;;;0.30;0.10;;;6.70;99.90;;;;;;5051383;28;20461;-82
2022/01/30 01:05:28;;;;;;;0.30;0.20;;;6.70;99.90;;;;;;5056802;28;20447;-83
2022/01/30 01:07:57;;;;;;;0.30;0.10;;;6.60;99.90;;;;;;5056859;28;20831;-83
2022/01/30 01:10:33;;;;;;;0.30;0.10;;;6.60;99.90;;;;;;5064396;28;20448;-84
2022/01/30 01:13:15;;;;;;;0.30;0.20;;;6.60;99.90;;;;;;5071383;28;20474;-83
2022/01/30 01:24:04;;;;;;;0.30;0.10;;;6.60;99.90;;;;;;5064675;28;20478;-85
2022/01/30 01:26:31;;;;;;;0.30;0.17;;;6.60;99.90;;;;;;5066094;28;20466;-84
2022/01/30 01:29:00;;;;;;;0.30;0.10;;;6.60;99.90;;;;;;5065098;28;20491;-83
2022/01/30 01:31:27;;;;;;;0.30;0.10;;;6.60;99.90;;;;;;5059891;28;20506;-85
2022/01/30 01:34:11;;;;;;;1.50;1.40;;;6.50;99.90;;;;;;5072133;28;20507;-83
2022/01/30 01:36:38;;;;;;;0.30;0.10;;;6.50;99.90;;;;;;5058185;28;20885;-84
2022/01/30 01:39:05;;;;;;;0.30;0.10;;;6.60;99.90;;;;;;5066510;28;20890;-84
2022/01/30 01:41:33;;;;;;;0.30;0.10;;;6.60;99.90;;;;;;5069623;28;20525;-83
2022/01/30 01:44:00;;;;;;;0.30;0.10;;;6.60;99.90;;;;;;5068510;28;20546;-83
2022/01/30 01:46:31;;;;;;;0.30;0.10;;;6.60;99.90;;;;;;5069058;28;20440;-83
2022/01/30 01:48:59;;;;;;;0.30;0.20;;;6.60;99.90;;;;;;5070703;28;20505;-86
2022/01/30 01:51:30;;;;;;;0.30;0.10;;;6.60;99.90;;;;;;5061481;28;20461;-83
2022/01/30 01:53:58;;;;;;;0.30;0.20;;;6.60;99.90;;;;;;5066502;28;20831;-84
2022/01/30 01:56:26;;;;;;;0.30;0.20;;;6.60;99.90;;;;;;5066656;28;20509;-84
2022/01/30 01:58:53;;;;;;;0.30;0.10;;;6.60;99.90;;;;;;5071733;28;20506;-83
2022/01/30 02:01:22;;;;;;;0.30;0.10;;;6.60;99.90;;;;;;5069244;28;20513;-83
2022/01/30 02:03:49;;;;;;;0.30;0.10;;;6.70;99.90;;;;;;5071494;28;20444;-83
2022/01/30 02:06:21;;;;;;;0.30;0.10;;;6.70;99.90;;;;;;5072075;28;20436;-86
2022/01/30 02:08:52;;;;;;;0.30;0.10;;;6.70;99.90;;;;;;5062982;28;20486;-84
2022/01/30 02:11:30;;;;;;;0.30;0.10;;;6.70;99.90;;;;;;5065637;28;20579;-86
2022/01/30 02:25:38;;;;;;;0.30;0.10;;;6.70;99.90;;;;;;5072581;28;20474;-85
2022/01/30 02:28:10;;;;;;;1.83;0.60;;;6.70;99.90;;;;;;5082304;28;20553;-83
2022/01/30 02:30:39;;;;;;;0.30;0.13;;;6.80;99.90;;;;;;5070859;28;20472;-83
2022/01/30 02:33:06;;;;;;;0.30;0.20;;;6.80;99.90;;;;;;5060412;28;20460;-83
2022/01/30 02:35:33;;;;;;;0.30;0.10;;;6.80;99.90;;;;;;5052738;28;20454;-86
2022/01/30 02:38:02;;;;;;;0.30;0.10;;;6.80;99.90;;;;;;5052379;28;20525;-85
2022/01/30 02:40:31;;;;;;;0.30;0.13;;;6.80;99.90;;;;;;5054853;28;20451;-83
2022/01/30 02:42:58;;;;;;;0.30;0.10;;;6.70;99.90;;;;;;5053852;28;20464;-84
2022/01/30 02:45:29;;;;;;;0.30;0.10;;;6.70;99.90;;;;;;5069702;28;20444;-87
2022/01/30 02:48:11;;;;;;;0.30;0.13;;;6.80;99.90;;;;;;5066304;28;20557;-83
2022/01/30 02:50:50;;;;;;;0.30;0.10;;;6.70;99.90;;;;;;5066387;28;20441;-83
2022/01/30 02:53:18;;;;;;;0.30;0.10;;;6.70;99.90;;;;;;5063526;28;20544;-82
2022/01/30 02:55:45;;;;;;;0.30;0.10;;;6.70;99.90;;;;;;5070224;28;20456;-85
2022/01/30 02:58:12;;;;;;;0.30;0.10;;;6.80;99.90;;;;;;5063837;28;20958;-85
2022/01/30 03:00:39;;;;;;;0.30;0.10;;;6.70;99.90;;;;;;5064159;28;21160;-85
2022/01/30 03:03:06;;;;;;;0.30;0.20;;;6.80;99.90;;;;;;5063584;28;20447;-86
2022/01/30 03:05:34;;;;;;;0.30;0.10;;;6.70;99.90;;;;;;5065563;28;20974;-85
2022/01/30 03:08:01;;;;;;;0.30;0.10;;;6.70;99.90;;;;;;5064659;28;20485;-83
2022/01/30 03:10:30;;;;;;;0.30;0.10;;;6.70;99.90;;;;;;5069796;28;20936;-83
2022/01/30 03:12:56;;;;;;;0.50;0.20;;;6.80;99.90;;;;;;5065604;28;21032;-86
2022/01/30 03:15:23;;;;;;;0.30;0.10;;;6.70;99.90;;;;;;5069269;28;20490;-87
2022/01/30 03:17:50;;;;;;;0.53;0.20;;;6.70;99.90;;;;;;5066355;28;20510;-83
2022/01/30 03:20:17;;;;;;;0.30;0.20;;;6.70;99.90;;;;;;5068881;28;20434;-87
2022/01/30 03:22:44;;;;;;;0.30;0.20;;;6.70;99.90;;;;;;5067361;28;20447;-88
2022/01/30 03:25:11;;;;;;;0.50;0.20;;;6.70;99.90;;;;;;5067429;28;20838;-84
2022/01/30 03:27:44;;;;;;;0.30;0.10;;;6.70;99.90;;;;;;5069725;28;20445;-84
2022/01/30 03:30:18;;;;;;;0.30;0.20;;;6.70;99.90;;;;;;5060497;28;20509;-84
2022/01/30 03:32:45;;;;;;;0.30;0.17;;;6.70;99.90;;;;;;5067595;28;20533;-84
2022/01/30 03:35:12;;;;;;;0.30;0.10;;;6.60;99.90;;;;;;5063909;28;20452;-83
2022/01/30 03:37:39;;;;;;;2.57;0.57;;;6.60;99.90;;;;;;5061507;28;20452;-84
2022/01/30 03:40:08;;;;;;;0.30;0.10;;;6.60;99.90;;;;;;5069315;28;20829;-84
2022/01/30 03:42:35;;;;;;;0.30;0.10;;;6.50;99.90;;;;;;5063081;28;20482;-84
2022/01/30 03:45:04;;;;;;;0.30;0.10;;;6.50;99.90;;;;;;5069349;28;20444;-84
2022/01/30 03:47:31;;;;;;;0.30;0.10;;;6.50;99.90;;;;;;5063800;28;20465;-83
2022/01/30 03:49:58;;;;;;;0.30;0.10;;;6.50;99.90;;;;;;5068852;28;20548;-86
2022/01/30 03:52:25;;;;;;;0.40;0.37;;;6.50;99.90;;;;;;5062671;28;20526;-85
2022/01/30 03:54:52;;;;;;;0.30;0.10;;;6.50;99.90;;;;;;5065654;28;20532;-83
2022/01/30 03:57:19;;;;;;;0.30;0.10;;;6.50;99.90;;;;;;5069459;28;20489;-84
2022/01/30 03:59:46;;;;;;;0.30;0.10;;;6.50;99.90;;;;;;5084293;28;20492;-85
2022/01/30 04:02:14;;;;;;;0.40;0.20;;;6.50;99.90;;;;;;5082802;28;20440;-84
2022/01/30 04:04:41;;;;;;;0.30;0.10;;;6.50;99.90;;;;;;5074272;28;20440;-85
2022/01/30 04:07:09;;;;;;;0.30;0.10;;;6.60;99.90;;;;;;5070448;28;20508;-84
2022/01/30 04:09:37;;;;;;;0.30;0.10;;;6.60;99.90;;;;;;5047735;28;20488;-83
2022/01/30 04:12:04;;;;;;;0.30;0.17;;;6.50;99.90;;;;;;5050233;28;20579;-85
2022/01/30 04:14:32;;;;;;;0.30;0.10;;;6.60;99.90;;;;;;5063363;28;20521;-85
2022/01/30 04:16:59;;;;;;;0.30;0.20;;;6.60;99.90;;;;;;5064618;28;20506;-86
2022/01/30 04:19:28;;;;;;;0.30;0.20;;;6.50;99.90;;;;;;5056663;28;20514;-83
2022/01/30 04:21:55;;;;;;;0.30;0.20;;;6.50;99.90;;;;;;5064073;28;20781;-86
2022/01/30 04:24:22;;;;;;;0.30;0.10;;;6.50;99.90;;;;;;5069187;28;20448;-85
2022/01/30 04:26:49;;;;;;;0.30;0.10;;;6.50;99.90;;;;;;5069986;28;20452;-86
2022/01/30 04:29:16;;;;;;;0.30;0.10;;;6.50;99.90;;;;;;5057165;28;20542;-84
2022/01/30 04:31:44;;;;;;;0.30;0.10;;;6.50;99.90;;;;;;5058575;28;20461;-82
2022/01/30 04:34:11;;;;;;;0.30;0.20;;;6.50;99.90;;;;;;5066738;28;20432;-85
2022/01/30 04:36:54;;;;;;;0.30;0.10;;;6.50;99.90;;;;;;5055734;28;20454;-83
2022/01/30 04:39:52;;;;;;;0.30;0.10;;;6.40;99.90;;;;;;5068344;28;21025;-83
2022/01/30 04:51:58;;;;;;;0.30;0.10;;;6.30;99.90;;;;;;5061237;28;20452;-83
2022/01/30 04:53:53;;;;;;;0.30;0.10;;;4.40;99.90;;;;;;5067825;28;20427;-84
2022/01/30 04:59:17;;;;;;;0.30;0.10;;;4.40;99.90;;;;;;5054121;28;20483;-83
2022/01/30 05:01:58;;;;;;;0.30;0.10;;;4.40;99.90;;;;;;5061960;28;20433;-88
2022/01/30 05:04:39;;;;;;;0.30;0.10;;;4.40;99.90;;;;;;5066716;28;20444;-84
2022/01/30 05:09:53;;;;;;;0.30;0.10;;;4.50;99.90;;;;;;5067952;28;20485;-83
2022/01/30 05:12:20;;;;;;;0.30;0.13;;;4.60;99.90;;;;;;5068379;28;20459;-83
2022/01/30 05:14:48;;;;;;;0.30;0.10;;;4.60;99.90;;;;;;5071927;28;20504;-86
2022/01/30 05:17:15;;;;;;;0.30;0.10;;;4.60;99.90;;;;;;5066207;28;20457;-83
2022/01/30 05:19:42;;;;;;;0.30;0.10;;;4.60;99.90;;;;;;5071772;28;20428;-83
2022/01/30 05:22:11;;;;;;;0.30;0.10;;;4.60;99.90;;;;;;5071543;28;20490;-84
2022/01/30 05:24:38;;;;;;;0.30;0.10;;;4.50;99.90;;;;;;5072338;28;20444;-84
2022/01/30 05:27:08;;;;;;;0.30;0.10;;;4.50;99.90;;;;;;5067622;28;20456;-83
2022/01/30 05:29:36;;;;;;;0.30;0.10;;;4.50;99.90;;;;;;5067552;28;20479;-83
2022/01/30 05:32:04;;;;;;;0.30;0.10;;;4.60;99.90;;;;;;5067004;28;20456;-83
2022/01/30 05:34:31;;;;;;;0.30;0.20;;;4.50;99.90;;;;;;5076237;28;20428;-83
2022/01/30 05:37:00;;;;;;;0.30;0.10;;;4.50;99.90;;;;;;5075754;28;20937;-82
2022/01/30 05:39:28;;;;;;;0.30;0.10;;;4.50;99.90;;;;;;5077680;28;21123;-83
2022/01/30 05:41:57;;;;;;;0.30;0.10;;;4.60;99.90;;;;;;5068072;28;20916;-85
2022/01/30 05:44:39;;;;;;;0.30;0.10;;;4.60;99.90;;;;;;5066447;28;20848;-84
2022/01/30 05:47:10;;;;;;;0.30;0.10;;;4.60;99.90;;;;;;5057695;28;20439;-85
2022/01/30 05:49:38;;;;;;;0.30;0.10;;;4.60;99.90;;;;;;5057329;28;20487;-84
2022/01/30 05:52:06;;;;;;;0.30;0.10;;;4.60;99.90;;;;;;5051584;28;20502;-84
2022/01/30 05:54:32;;;;;;;0.30;0.20;;;4.60;99.90;;;;;;5064367;28;20462;-84
2022/01/30 05:57:01;;;;;;;0.30;0.10;;;4.60;99.90;;;;;;5071249;28;20444;-84
2022/01/30 05:59:29;;;;;;;0.30;0.20;;;4.70;99.90;;;;;;5069661;28;20490;-85
2022/01/30 06:01:56;;;;;;;0.30;0.10;;;4.80;99.90;;;;;;5068009;28;20510;-84
2022/01/30 06:04:23;;;;;;;0.30;0.10;;;4.70;99.90;;;;;;5066252;28;20464;-89
2022/01/30 06:06:52;;;;;;;0.40;0.20;;;4.80;99.90;;;;;;5068495;28;20463;-84
2022/01/30 06:09:19;;;;;;;0.30;0.10;;;4.80;99.90;;;;;;5071593;28;20825;-84
2022/01/30 06:11:47;;;;;;;0.30;0.20;;;4.80;99.90;;;;;;5071295;28;20522;-84
2022/01/30 06:14:15;;;;;;;0.30;0.20;;;5.00;99.90;;;;;;5067289;28;20506;-84
2022/01/30 06:16:43;;;;;;;0.30;0.10;;;5.00;99.90;;;;;;5068732;28;20456;-86
2022/01/30 06:19:10;;;;;;;0.30;0.20;;;5.00;99.90;;;;;;5068244;28;20436;-86
2022/01/30 06:21:37;;;;;;;0.30;0.10;;;5.00;99.90;;;;;;5068833;28;20514;-86
2022/01/30 06:24:04;;;;;;;0.33;0.17;;;5.00;99.90;;;;;;5068900;28;20432;-83
2022/01/30 06:26:31;;;;;;;0.30;0.10;;;5.10;99.90;;;;;;5065142;28;20992;-85
2022/01/30 06:28:58;;;;;;;0.30;0.20;;;5.20;99.90;;;;;;5064270;28;20534;-84
2022/01/30 06:31:26;;;;;;;0.40;0.20;;;5.10;99.90;;;;;;5059328;28;20435;-85
2022/01/30 06:33:55;;;;;;;0.30;0.10;;;5.10;99.90;;;;;;5069953;28;20448;-85
2022/01/30 06:36:22;;;;;;;0.30;0.10;;;5.10;99.90;;;;;;5059608;28;20456;-84
2022/01/30 06:38:50;;;;;;;0.30;0.10;;;5.10;99.90;;;;;;5065036;28;20498;-87
2022/01/30 06:41:17;;;;;;;0.30;0.20;;;5.10;99.90;;;;;;5065002;28;20452;-86
2022/01/30 06:43:44;;;;;;;0.30;0.10;;;5.10;99.90;;;;;;5067490;28;20453;-84
2022/01/30 06:46:12;;;;;;;0.30;0.10;;;5.10;99.90;;;;;;5050000;28;20557;-86
2022/01/30 06:48:39;;;;;;;0.30;0.20;;;5.20;99.90;;;;;;5046692;28;20450;-88
2022/01/30 06:51:07;;;;;;;0.30;0.10;;;5.30;99.90;;;;;;5064522;28;20448;-86
2022/01/30 06:53:35;;;;;;;0.40;0.20;;;5.30;99.90;;;;;;5064037;28;20834;-87
2022/01/30 06:56:02;;;;;;;0.30;0.20;;;5.30;99.90;;;;;;5048800;28;20441;-86
2022/01/30 06:58:28;;;;;;;0.30;0.10;;;5.30;99.90;;;;;;5038709;28;20507;-86
2022/01/30 07:00:56;;;;;;;0.30;0.10;;;5.10;99.90;;;;;;5045538;28;20488;-85
2022/01/30 07:03:22;;;;;;;0.30;0.10;;;4.90;99.90;;;;;;5041074;28;20510;-86
2022/01/30 07:05:49;;;;;;;0.30;0.20;;;4.80;99.90;;;;;;5041152;28;20519;-87
2022/01/30 07:08:18;;;;;;;0.87;0.40;;;4.70;99.90;;;;;;5039208;28;20466;-86
2022/01/30 07:10:45;;;;;;;0.30;0.10;;;4.60;99.90;;;;;;5054662;28;20489;-85
2022/01/30 07:13:12;;;;;;;0.30;0.10;;;4.60;99.90;;;;;;5062685;28;20457;-86
2022/01/30 07:15:41;;;;;;;0.47;0.43;;;4.60;99.90;;;;;;5061916;28;20462;-86
2022/01/30 07:18:08;;;;;;;0.30;0.20;;;4.70;99.90;;;;;;5055502;28;20548;-86
2022/01/30 07:20:36;;;;;;;0.80;0.60;;;4.70;99.90;;;;;;5055236;28;20923;-88
2022/01/30 07:23:03;;;;;;;0.40;0.27;;;4.80;99.90;;;;;;5056661;28;20461;-90
2022/01/30 07:25:32;;;;;;;0.30;0.10;;;4.70;99.90;;;;;;5059211;28;20489;-88
2022/01/30 07:28:00;;;;;;;0.30;0.10;;;4.80;99.90;;;;;;5060123;28;20452;-86
2022/01/30 07:30:27;;;;;;;0.30;0.10;;;4.80;99.90;;;;;;5047062;28;20482;-86
2022/01/30 07:32:54;;;;;;;0.30;0.10;;;4.80;99.90;;;;;;5048407;28;20514;-86
2022/01/30 07:35:22;;;;;;;0.30;0.20;;;4.80;99.90;;;;;;5043474;28;20991;-86
2022/01/30 07:37:49;;;;;;;0.30;0.10;;;4.90;99.90;;;;;;5048727;28;20452;-86
2022/01/30 07:40:17;;;;;;;0.50;0.50;;;4.80;99.90;;;;;;5048776;28;20554;-85
2022/01/30 07:42:45;;;;;;;0.30;0.10;;;4.90;99.90;;;;;;5035593;28;20808;-85
2022/01/30 07:45:12;;;;;;;0.40;0.20;;;4.90;99.90;;;;;;5045705;28;20533;-84
2022/01/30 07:47:39;;;;;;;0.30;0.10;;;4.90;99.90;;;;;;5038275;28;20506;-85
2022/01/30 07:50:07;;;;;;;0.30;0.10;;;4.80;99.90;;;;;;5046106;28;20538;-84
2022/01/30 07:52:34;;;;;;;0.30;0.10;;;4.70;99.90;;;;;;5049785;28;20441;-84
2022/01/30 07:55:01;;;;;;;0.30;0.20;;;4.50;99.90;;;;;;5049196;28;20943;-84
2022/01/30 07:57:28;;;;;;;0.30;0.10;;;4.40;99.90;;;;;;5050141;28;20498;-84
2022/01/30 07:59:56;;;;;;;0.30;0.10;;;4.40;99.90;;;;;;5040141;28;20493;-84
2022/01/30 08:02:23;;;;;;;0.30;0.10;;;4.50;99.90;;;;;;5048002;28;20513;-83
2022/01/30 08:04:52;;;;;;;0.30;0.20;;;4.50;99.90;;;;;;5049410;28;20452;-87
2022/01/30 08:07:19;;;;;;;0.30;0.10;;;4.60;99.90;;;;;;5060841;28;20518;-85
2022/01/30 08:09:46;;;;;;;0.30;0.10;;;4.80;99.90;;;;;;5051745;28;20481;-88
2022/01/30 08:12:13;;;;;;;0.30;0.13;;;4.90;99.90;;;;;;5043583;28;20547;-87
2022/01/30 08:14:40;;;;;;;0.30;0.17;;;5.00;99.90;;;;;;5049607;28;20473;-86
2022/01/30 08:17:08;;;;;;;0.30;0.10;;;5.00;99.90;;;;;;5048639;28;20460;-85
2022/01/30 08:19:35;;;;;;;0.30;0.10;;;5.10;99.90;;;;;;5049866;28;20452;-88
2022/01/30 08:22:03;;;;;;;0.30;0.10;;;5.10;99.90;;;;;;5061786;28;20897;-87
2022/01/30 08:24:30;;;;;;;0.30;0.10;;;5.10;99.90;;;;;;5045822;28;20466;-87
2022/01/30 08:26:58;;;;;;;0.30;0.20;;;5.10;99.90;;;;;;5051099;28;20452;-86
2022/01/30 08:29:25;;;;;;;0.50;0.47;;;5.20;99.90;;;;;;5054363;28;20484;-85
2022/01/30 08:31:52;;;;;;;0.40;0.23;;;5.10;99.90;;;;;;5051790;28;20468;-90
2022/01/30 08:34:20;;;;;;;0.30;0.13;;;5.10;99.90;;;;;;5051932;28;20533;-84
2022/01/30 08:36:47;;;;;;;0.30;0.20;;;5.10;99.90;;;;;;5049653;28;20461;-85
2022/01/30 08:39:14;;;;;;;0.30;0.10;;;5.10;99.90;;;;;;5045871;28;20457;-84
2022/01/30 08:41:41;;;;;;;0.30;0.10;;;5.10;99.90;;;;;;5058338;28;20456;-84
2022/01/30 08:44:08;;;;;;;0.30;0.20;;;5.10;99.90;;;;;;5074861;28;20445;-88
2022/01/30 08:46:35;;;;;;;0.40;0.30;;;5.00;99.90;;;;;;5066512;28;20791;-84
2022/01/30 08:49:02;;;;;;;0.30;0.10;;;4.70;99.90;;;;;;5055030;28;21106;-85
2022/01/30 08:51:31;;;;;;;0.30;0.10;;;4.70;99.90;;;;;;5054702;28;20541;-87
2022/01/30 08:53:58;;;;;;;0.40;0.33;;;4.80;99.90;;;;;;5062898;28;20849;-88
2022/01/30 08:56:25;;;;;;;0.30;0.20;;;4.70;99.90;;;;;;5055946;28;20465;-89
2022/01/30 08:58:52;;;;;;;0.30;0.20;;;4.70;99.90;;;;;;5054935;28;21280;-85
2022/01/30 09:01:19;;;;;;;0.40;0.20;;;4.80;99.90;;;;;;5036736;28;20941;-85
2022/01/30 09:03:46;;;;;;;1.17;0.20;;;4.80;99.90;;;;;;5043868;28;20465;-85
2022/01/30 09:06:13;;;;;;;0.30;0.10;;;4.80;99.90;;;;;;5060867;28;20451;-88
2022/01/30 09:08:45;;;;;;;0.40;0.33;;;4.80;99.90;;;;;;5051772;28;20453;-87
2022/01/30 09:11:11;;;;;;;0.30;0.20;;;4.90;99.90;;;;;;5053571;28;20477;-91
2022/01/30 09:13:38;;;;;;;0.30;0.10;;;4.90;99.90;;;;;;5049012;28;20508;-86
2022/01/30 09:16:06;;;;;;;0.30;0.20;;;5.00;99.90;;;;;;5044423;28;20476;-87
2022/01/30 09:18:37;;;;;;;0.30;0.20;;;5.20;99.90;;;;;;5051037;28;20518;-86
2022/01/30 09:21:05;;;;;;;0.30;0.10;;;5.40;99.90;;;;;;5063085;28;20452;-90
2022/01/30 09:23:32;;;;;;;0.30;0.20;;;5.50;99.90;;;;;;5067032;28;20448;-86
2022/01/30 09:26:01;;;;;;;0.30;0.20;;;5.50;99.90;;;;;;5050688;28;20449;-89
2022/01/30 09:28:28;;;;;;;0.30;0.10;;;5.40;99.90;;;;;;5048485;28;20465;-86
2022/01/30 09:30:55;;;;;;;0.30;0.20;;;5.40;99.90;;;;;;5042217;28;20531;-88
2022/01/30 09:33:21;;;;;;;0.30;0.20;;;5.50;99.90;;;;;;5061981;28;20456;-85
2022/01/30 09:35:48;;;;;;;0.30;0.13;;;5.60;99.90;;;;;;5071894;28;20469;-86
2022/01/30 09:38:15;;;;;;;0.30;0.10;;;5.70;99.90;;;;;;5072177;28;20448;-86
2022/01/30 09:40:42;;;;;;;0.30;0.10;;;5.70;99.90;;;;;;5054479;28;20473;-87
2022/01/30 09:43:13;;;;;;;0.30;0.20;;;5.70;99.90;;;;;;5048396;28;20507;-86
2022/01/30 09:45:40;;;;;;;0.30;0.13;;;5.70;99.90;;;;;;5054656;28;20501;-86
2022/01/30 09:48:08;;;;;;;0.30;0.10;;;5.70;99.90;;;;;;5051272;28;20444;-87
2022/01/30 09:50:35;;;;;;;0.30;0.10;;;5.80;99.90;;;;;;5058372;28;20479;-86
2022/01/30 09:53:02;;;;;;;0.30;0.20;;;5.80;99.90;;;;;;5045301;28;20457;-84
2022/01/30 09:55:29;;;;;;;0.40;0.40;;;6.00;99.90;;;;;;5044931;28;20444;-84
2022/01/30 09:57:56;;;;;;;0.30;0.10;;;6.10;99.90;;;;;;5049487;28;20469;-84
2022/01/30 10:00:25;;;;;;;0.30;0.10;;;6.10;99.90;;;;;;5050803;28;20574;-84
2022/01/30 10:02:52;;;;;;;0.40;0.40;;;6.00;99.90;;;;;;5049550;28;20858;-84
2022/01/30 10:05:20;;;;;;;0.30;0.10;;;5.90;99.90;;;;;;5050354;28;20914;-83
2022/01/30 10:07:51;;;;;;;0.30;0.20;;;5.90;99.90;;;;;;5046997;28;20989;-83
2022/01/30 10:10:21;;;;;;;0.30;0.17;;;5.80;99.90;;;;;;5050175;28;20480;-83
2022/01/30 10:13:02;;;;;;;0.30;0.17;;;5.90;99.90;;;;;;5048556;28;20463;-84
2022/01/30 10:15:31;;;;;;;0.30;0.10;;;5.90;99.90;;;;;;5042378;28;22357;-83
2022/01/30 10:17:58;;;;;;;0.30;0.10;;;5.90;99.90;;;;;;5043411;28;20468;-84
2022/01/30 10:20:27;;;;;;;0.30;0.10;;;5.90;99.90;;;;;;5047222;28;20540;-86
2022/01/30 10:22:56;;;;;;;0.30;0.10;;;5.80;99.90;;;;;;5049376;28;20634;-88
2022/01/30 10:25:25;;;;;;;0.30;0.10;;;5.80;99.90;;;;;;5051239;28;20716;-87
2022/01/30 10:28:06;;;;;;;0.30;0.20;;;5.70;99.90;;;;;;5047517;28;20449;-86
2022/01/30 10:30:44;;;;;;;0.30;0.10;;;5.70;99.90;;;;;;5047525;28;20489;-86
2022/01/30 10:33:12;;;;;;;0.30;0.10;;;5.60;99.90;;;;;;5036703;28;20445;-87
2022/01/30 10:35:48;;;;;;;0.30;0.20;;;5.70;99.90;;;;;;5032694;28;20825;-86
2022/01/30 10:38:23;;;;;;;0.30;0.20;;;5.70;99.90;;;;;;5045155;28;21039;-88
2022/01/30 10:40:58;;;;;;;0.30;0.20;;;5.70;99.90;;;;;;5034949;28;20798;-87
2022/01/30 10:43:52;;;;;;;0.50;0.30;;;5.80;99.90;;;;;;5050328;28;20445;-87
2022/01/30 10:46:22;;;;;;;0.30;0.20;;;5.80;99.90;;;;;;5046093;28;20437;-87
2022/01/30 10:48:55;;;;;;;0.43;0.20;;;5.80;99.90;;;;;;5050006;28;20450;-83
2022/01/30 10:51:22;;;;;;;0.30;0.10;;;5.80;99.90;;;;;;5043096;28;20482;-84
2022/01/30 10:53:51;;;;;;;0.30;0.20;;;5.80;99.90;;;;;;5050195;28;20445;-84
2022/01/30 10:56:27;;;;;;;0.30;0.10;;;5.90;99.90;;;;;;5049908;28;20448;-84
2022/01/30 10:59:10;;;;;;;0.30;0.10;;;5.80;99.90;;;;;;5042807;28;20471;-85
2022/01/30 11:01:40;;;;;;;0.30;0.20;;;5.90;99.90;;;;;;5050029;28;20502;-86
2022/01/30 11:04:07;;;;;;;0.30;0.17;;;5.90;99.90;;;;;;5049678;28;20452;-84
2022/01/30 11:06:39;;;;;;;0.97;0.63;;;5.80;99.90;;;;;;5049936;28;20445;-85
2022/01/30 11:09:08;;;;;;;0.30;0.13;;;5.70;99.90;;;;;;5064577;28;20433;-82
2022/01/30 11:11:40;;;;;;;0.30;0.20;;;5.60;99.90;;;;;;5073264;28;20486;-84
2022/01/30 11:14:18;;;;;;;0.30;0.10;;;5.90;99.90;;;;;;5064266;28;20533;-87
2022/01/30 11:17:06;;;;;;;0.30;0.20;;;5.90;99.90;;;;;;5046974;28;20444;-84
2022/01/30 11:19:37;;;;;;;0.30;0.10;;;6.00;99.90;;;;;;5052711;28;20523;-84
2022/01/30 11:22:07;;;;;;;0.50;0.20;;;6.00;99.90;;;;;;5052521;28;20547;-83
2022/01/30 11:24:39;;;;;;;0.30;0.20;;;6.00;99.90;;;;;;5040988;28;20628;-87
2022/01/30 11:27:09;;;;;;;0.30;0.10;;;6.10;99.90;;;;;;5050233;28;20861;-85
2022/01/30 11:29:38;;;;;;;0.30;0.10;;;6.40;99.80;;;;;;5040738;28;20514;-84
2022/01/30 11:32:08;;;;;;;0.40;0.30;;;6.60;98.10;;;;;;5050114;28;20476;-84
2022/01/30 11:34:37;;;;;;;0.40;0.20;;;6.60;96.50;;;;;;5055612;28;20448;-84
2022/01/30 11:37:05;;;;;;;0.30;0.10;;;6.40;96.20;;;;;;5049963;28;20499;-87
2022/01/30 11:39:32;;;;;;;0.30;0.20;;;6.30;96.70;;;;;;5046750;28;20525;-86
2022/01/30 11:42:19;;;;;;;0.30;0.10;;;6.30;97.00;;;;;;5047538;28;20933;-89
2022/01/30 11:44:47;;;;;;;0.30;0.10;;;6.10;96.20;;;;;;5044415;28;20448;-86
2022/01/30 11:47:25;;;;;;;0.30;0.10;;;6.00;95.60;;;;;;5043010;28;20927;-86
2022/01/30 11:50:07;;;;;;;0.30;0.10;;;6.10;95.60;;;;;;5051071;28;20441;-88
2022/01/30 11:52:50;;;;;;;0.30;0.20;;;6.20;95.30;;;;;;5049363;28;20457;-86
2022/01/30 11:55:48;;;;;;;0.30;0.10;;;6.10;94.50;;;;;;5044886;28;20442;-88
2022/01/30 11:58:43;;;;;;;0.30;0.10;;;6.30;95.10;;;;;;5041547;28;20465;-86
2022/01/30 12:01:35;;;;;;;0.30;0.20;;;6.30;95.00;;;;;;5050635;28;20548;-86
2022/01/30 12:04:07;;;;;;;0.30;0.10;;;6.10;95.90;;;;;;5060918;28;20464;-87
2022/01/30 12:06:35;;;;;;;0.30;0.20;;;5.90;96.10;;;;;;5069360;28;20992;-86
2022/01/30 12:09:04;;;;;;;0.30;0.10;;;5.80;97.30;;;;;;5063902;28;20911;-86
2022/01/30 12:11:51;;;;;;;1.70;0.50;;;6.00;97.70;;;;;;5057059;28;20966;-86
2022/01/30 12:14:54;;;;;;;0.30;0.20;;;6.20;97.50;;;;;;5044088;28;20468;-86
2022/01/30 12:17:49;;;;;;;0.30;0.20;;;6.00;98.00;;;;;;5051242;28;20846;-87
2022/01/30 12:20:22;;;;;;;0.30;0.10;;;6.00;97.20;;;;;;5050578;28;20967;-86
2022/01/30 12:22:50;;;;;;;0.30;0.20;;;6.20;97.70;;;;;;5044252;28;20463;-87
2022/01/30 12:25:37;;;;;;;0.30;0.20;;;6.20;96.80;;;;;;5053150;28;20461;-87
2022/01/30 12:28:09;;;;;;;0.30;0.10;;;6.10;95.90;;;;;;5045674;28;20818;-86
2022/01/30 12:30:39;;;;;;;0.30;0.10;;;6.10;95.90;;;;;;5052434;28;20542;-86
2022/01/30 12:33:33;;;;;;;0.30;0.20;;;5.80;95.20;;;;;;5044073;28;20469;-89
2022/01/30 12:36:04;;;;;;;0.30;0.20;;;5.90;94.40;;;;;;5035990;28;20488;-89
2022/01/30 12:38:33;;;;;;;0.30;0.10;;;6.00;94.10;;;;;;5055777;28;21006;-91
2022/01/30 12:41:00;;;;;;;0.30;0.10;;;6.10;95.00;;;;;;5057220;28;20477;-89
2022/01/30 12:43:30;;;;;;;0.40;0.30;;;6.10;93.10;;;;;;5047395;28;20905;-90
2022/01/30 12:46:08;;;;;;;0.30;0.20;;;5.90;93.90;;;;;;5057362;28;20468;-89
2022/01/30 12:48:35;;;;;;;0.30;0.10;;;5.70;93.90;;;;;;5066763;28;20444;-88
2022/01/30 12:51:07;;;;;;;0.30;0.20;;;5.60;94.40;;;;;;5062987;28;20476;-89
2022/01/30 12:53:36;;;;;;;0.30;0.20;;;5.70;94.00;;;;;;5068983;28;20467;-88
2022/01/30 12:56:05;;;;;;;0.30;0.10;;;5.80;93.80;;;;;;5054518;28;20463;-88
2022/01/30 12:58:34;;;;;;;0.30;0.10;;;5.60;94.30;;;;;;5053225;28;20444;-88
2022/01/30 13:01:09;;;;;;;0.40;0.30;;;5.50;94.50;;;;;;5039936;28;20485;-88
2022/01/30 13:03:37;;;;;;;0.30;0.10;;;5.60;94.90;;;;;;5032300;28;20444;-88
2022/01/30 13:06:05;;;;;;;0.30;0.10;;;5.70;94.80;;;;;;5032472;28;20478;-89
2022/01/30 13:08:51;;;;;;;0.30;0.10;;;5.90;93.50;;;;;;5034012;28;20458;-91
2022/01/30 13:11:20;;;;;;;0.30;0.13;;;6.00;93.30;;;;;;5032265;28;20485;-89
2022/01/30 13:13:58;;;;;;;0.30;0.10;;;5.90;92.40;;;;;;5038718;28;20457;-88
2022/01/30 13:16:28;;;;;;;0.30;0.20;;;5.70;91.90;;;;;;5049723;28;20452;-89
2022/01/30 13:18:55;;;;;;;0.30;0.20;;;5.60;92.90;;;;;;5049736;28;20468;-91
2022/01/30 13:21:24;;;;;;;0.30;0.10;;;5.70;92.70;;;;;;5033264;28;20449;-88
2022/01/30 13:23:52;;;;;;;0.30;0.13;;;5.60;92.40;;;;;;5042147;28;20924;-87
2022/01/30 13:26:39;;;;;;;0.30;0.10;;;5.70;92.90;;;;;;5051897;28;20951;-90
2022/01/30 13:29:16;;;;;;;0.30;0.20;;;5.80;93.00;;;;;;5045972;28;20562;-90
2022/01/30 13:31:46;;;;;;;0.30;0.10;;;5.80;92.00;;;;;;5046081;28;20476;-91
2022/01/30 13:34:18;;;;;;;0.30;0.10;;;5.90;92.20;;;;;;5034052;28;20457;-88
2022/01/30 13:36:54;;;;;;;0.30;0.10;;;5.70;92.10;;;;;;5032209;28;21188;-89
2022/01/30 13:39:32;;;;;;;0.30;0.20;;;5.60;92.00;;;;;;5037606;28;20488;-88
2022/01/30 13:42:36;;;;;;;0.30;0.20;;;5.50;92.60;;;;;;5031990;28;20448;-87
2022/01/30 13:48:08;;;;;;;0.30;0.20;;;5.60;92.20;;;;;;5050568;28;20558;-91
2022/01/30 13:50:38;;;;;;;0.30;0.10;;;5.70;92.20;;;;;;5047931;28;20519;-87